Polar Endeavour — WCAJ — position and weather

sailwx.info

Track history (hours):
 
Tides and Currents Weather Stations Pressure Air Temp Water Temp Dewpoint Dewpoint Depression Visibility Wind Speed Wind Dir Waves Ship Positions

Polar Endeavour

Owner: Polar Tankers, Inc., Bartlesville, OK. More information available from US FCC via Universal Licensing System and Coast Guard Vessel Documentation Center.

Last reported at 2017-Oct-22 10:00 UTC. Time now 2017-Oct-22 10:14 UTC.
Position N 38°15' W 123°35'.

Type: Ship. MMSI: 338371000.

Date/timePositionNaut miles runAvg speedWind from/ knotsBaromVisibWave heightAir tempDewpointWater temp
2017-Oct-22 10:00N 38°15' W 123°35'713.2
2017-Oct-22 09:30N 38°18' W 123°42'612.8
2017-Oct-22 09:00N 38°22' W 123°48'613.0
2017-Oct-22 08:30N 38°26' W 123°55'713.2
2017-Oct-22 08:00N 38°29' W 124°02'58112.9
2017-Oct-20 11:04N 48°06' W 125°37'314.2
2017-Oct-20 10:52N 48°08' W 125°34'514.2
2017-Oct-20 10:30N 48°12' W 125°28'714.0
2017-Oct-20 09:59N 48°17' W 125°20'713.3
2017-Oct-20 09:30N 48°21' W 125°13'613.1
2017-Oct-20 09:00N 48°26' W 125°06'612.1
2017-Oct-20 08:30N 48°30' W 125°00'611.5
2017-Oct-20 08:00N 48°31' W 124°52'612.1
2017-Oct-20 07:31N 48°30' W 124°43'713.2
2017-Oct-20 07:01N 48°28' W 124°34'713.8
2017-Oct-20 06:30N 48°25' W 124°24'815.3
2017-Oct-20 06:01N 48°22' W 124°13'815.8
2017-Oct-20 05:30N 48°19' W 124°02'816.1
2017-Oct-20 04:59N 48°17' W 123°50'817.9
2017-Oct-20 04:30N 48°15' W 123°38'816.6
2017-Oct-20 04:00N 48°12' W 123°26'4 8.8
2017-Oct-20 03:30N 48°08' W 123°24'0 0.8
2017-Oct-20 03:00N 48°08' W 123°25'0 0.1
2017-Oct-20 02:24N 48°08' W 123°25'0 0.1
2017-Oct-20 02:00N 48°08' W 123°25'0 0.1
2017-Oct-20 01:12N 48°08' W 123°25'0 0.1
2017-Oct-20 00:54N 48°08' W 123°25'0 0.1
2017-Oct-20 00:26N 48°08' W 123°25'0 0.0
2017-Oct-19 23:57N 48°08' W 123°25'0 0.1
2017-Oct-19 23:29N 48°08' W 123°25'0 0.1
2017-Oct-19 22:54N 48°08' W 123°25'0 0.1
2017-Oct-19 22:27N 48°08' W 123°25'0 0.0
2017-Oct-19 21:59N 48°08' W 123°25'0 0.0
2017-Oct-19 21:30N 48°08' W 123°25'0 0.0
2017-Oct-19 21:00N 48°08' W 123°25'0 0.1
2017-Oct-19 20:29N 48°08' W 123°25'0 0.0
2017-Oct-19 19:54N 48°08' W 123°25'0 0.0
2017-Oct-19 19:27N 48°08' W 123°25'0 0.1
2017-Oct-19 18:57N 48°08' W 123°25'0 0.1
2017-Oct-19 18:27N 48°08' W 123°25'0 0.0
2017-Oct-19 17:53N 48°08' W 123°25'0 0.2
2017-Oct-19 17:29N 48°08' W 123°25'0 0.1
2017-Oct-19 16:59N 48°08' W 123°25'0 0.1
2017-Oct-19 16:30N 48°08' W 123°25'0 0.3
2017-Oct-19 16:00N 48°08' W 123°25'0 0.2
2017-Oct-19 15:29N 48°08' W 123°25'0 0.1
2017-Oct-19 14:53N 48°08' W 123°25'0 0.1
2017-Oct-19 14:30N 48°08' W 123°25'0 0.0
2017-Oct-19 13:56N 48°08' W 123°25'0 0.0
2017-Oct-19 13:30N 48°08' W 123°25'0 0.0
2017-Oct-19 12:57N 48°08' W 123°25'0 0.1
2017-Oct-19 12:29N 48°08' W 123°25'0 0.0
2017-Oct-19 12:00N 48°08' W 123°25'0 0.1
2017-Oct-19 11:27N 48°08' W 123°25'0 0.2
2017-Oct-19 10:59N 48°08' W 123°25'0 0.4
2017-Oct-19 10:30N 48°08' W 123°25'2 3.9
2017-Oct-19 10:00N 48°08' W 123°22'4 7.7
2017-Oct-19 09:30N 48°10' W 123°17'612.5
2017-Oct-19 09:00N 48°15' W 123°10'713.0
2017-Oct-19 08:30N 48°19' W 123°02'612.8
2017-Oct-19 08:00N 48°22' W 122°54'713.1
2017-Oct-19 07:30N 48°26' W 122°46'510.6
2017-Oct-19 07:00N 48°31' W 122°44'611.3
2017-Oct-19 06:30N 48°37' W 122°45'611.3
2017-Oct-19 06:00N 48°42' W 122°44'611.8
2017-Oct-19 05:30N 48°48' W 122°45'1 0.1
2017-Oct-18 14:00N 48°49' W 122°43'1 2.5
2017-Oct-18 13:30N 48°48' W 122°44'4 7.7
2017-Oct-18 13:00N 48°45' W 122°45'611.9
2017-Oct-18 12:30N 48°39' W 122°43'510.9
2017-Oct-18 12:00N 48°33' W 122°45'610.8
2017-Oct-18 11:30N 48°28' W 122°45'611.5
2017-Oct-18 11:00N 48°23' W 122°50'713.3
2017-Oct-18 10:30N 48°20' W 122°58'714.1
2017-Oct-18 10:00N 48°16' W 123°07'815.9
2017-Oct-18 09:30N 48°12' W 123°18'611.9
2017-Oct-18 09:00N 48°10' W 123°26'510.1
2017-Oct-18 08:30N 48°13' W 123°32'712.5
2017-Oct-18 07:59N 48°13' W 123°42'5 9.8
2017-Oct-18 07:29N 48°13' W 123°50'4 9.2
2017-Oct-18 07:00N 48°14' W 123°56'712.9
2017-Oct-18 06:30N 48°17' W 124°05'714.7
2017-Oct-18 06:00N 48°20' W 124°15'714.6
2017-Oct-18 05:30N 48°23' W 124°25'714.3
2017-Oct-18 05:00N 48°26' W 124°34'713.8
2017-Oct-18 04:31N 48°28' W 124°44'714.1
2017-Oct-18 04:00N 48°28' W 124°55'714.3
2017-Oct-18 03:30N 48°28' W 125°06'815.1
2017-Oct-18 03:00N 48°28' W 125°17'815.3
2017-Oct-18 02:30N 48°28' W 125°29'714.7
2017-Oct-18 02:01N 48°28' W 125°40'714.7
2017-Oct-18 01:30N 48°29' W 125°51'814.8
2017-Oct-18 00:59N 48°29' W 126°02'19713.2
2017-Oct-17 10:00N 50°00' W 130°30'18615.5 1015.910.8 11.0 4.312.0
2017-Oct-16 22:00N 51°36' W 134°42'20015.4 1012.0 5.4 10.0 7.912.0
2017-Oct-16 09:00N 53°30' W 139°12'30814.0 1011.410.8 9.0 9.012.0
2017-Oct-15 11:00N 57°54' W 143°54'   1000.610.8 7.0 4.710.0
2017-Oct-12 11:00N 56°42' W 142°42'   270 / 251029.110.8 11.0 9.011.0
Track history (hours):
 
Tides and Currents Weather Stations Pressure Air Temp Water Temp Dewpoint Dewpoint Depression Visibility Wind Speed Wind Dir Waves Ship Positions

Polar Endeavour

Owner: Polar Tankers, Inc., Bartlesville, OK. More information available from US FCC via Universal Licensing System and Coast Guard Vessel Documentation Center.

Last reported at 2017-Oct-22 10:00 UTC. Time now 2017-Oct-22 10:14 UTC.
Position N 38°15' W 123°35'.

Type: Ship. MMSI: 338371000.

Date/timePositionNaut miles runAvg speedWind from/ knotsBaromVisibWave heightAir tempDewpointWater temp
2017-Oct-22 10:00N 38°15' W 123°35'713.2
2017-Oct-22 09:30N 38°18' W 123°42'612.8
2017-Oct-22 09:00N 38°22' W 123°48'613.0
2017-Oct-22 08:30N 38°26' W 123°55'713.2
2017-Oct-22 08:00N 38°29' W 124°02'58112.9
2017-Oct-20 11:04N 48°06' W 125°37'314.2
2017-Oct-20 10:52N 48°08' W 125°34'514.2
2017-Oct-20 10:30N 48°12' W 125°28'714.0
2017-Oct-20 09:59N 48°17' W 125°20'713.3
2017-Oct-20 09:30N 48°21' W 125°13'613.1
2017-Oct-20 09:00N 48°26' W 125°06'612.1
2017-Oct-20 08:30N 48°30' W 125°00'611.5
2017-Oct-20 08:00N 48°31' W 124°52'612.1
2017-Oct-20 07:31N 48°30' W 124°43'713.2
2017-Oct-20 07:01N 48°28' W 124°34'713.8
2017-Oct-20 06:30N 48°25' W 124°24'815.3
2017-Oct-20 06:01N 48°22' W 124°13'815.8
2017-Oct-20 05:30N 48°19' W 124°02'816.1
2017-Oct-20 04:59N 48°17' W 123°50'817.9
2017-Oct-20 04:30N 48°15' W 123°38'816.6
2017-Oct-20 04:00N 48°12' W 123°26'4 8.8
2017-Oct-20 03:30N 48°08' W 123°24'0 0.8
2017-Oct-20 03:00N 48°08' W 123°25'0 0.1
2017-Oct-20 02:24N 48°08' W 123°25'0 0.1
2017-Oct-20 02:00N 48°08' W 123°25'0 0.1
2017-Oct-20 01:12N 48°08' W 123°25'0 0.1
2017-Oct-20 00:54N 48°08' W 123°25'0 0.1
2017-Oct-20 00:26N 48°08' W 123°25'0 0.0
2017-Oct-19 23:57N 48°08' W 123°25'0 0.1
2017-Oct-19 23:29N 48°08' W 123°25'0 0.1
2017-Oct-19 22:54N 48°08' W 123°25'0 0.1
2017-Oct-19 22:27N 48°08' W 123°25'0 0.0
2017-Oct-19 21:59N 48°08' W 123°25'0 0.0
2017-Oct-19 21:30N 48°08' W 123°25'0 0.0
2017-Oct-19 21:00N 48°08' W 123°25'0 0.1
2017-Oct-19 20:29N 48°08' W 123°25'0 0.0
2017-Oct-19 19:54N 48°08' W 123°25'0 0.0
2017-Oct-19 19:27N 48°08' W 123°25'0 0.1
2017-Oct-19 18:57N 48°08' W 123°25'0 0.1
2017-Oct-19 18:27N 48°08' W 123°25'0 0.0
2017-Oct-19 17:53N 48°08' W 123°25'0 0.2
2017-Oct-19 17:29N 48°08' W 123°25'0 0.1
2017-Oct-19 16:59N 48°08' W 123°25'0 0.1
2017-Oct-19 16:30N 48°08' W 123°25'0 0.3
2017-Oct-19 16:00N 48°08' W 123°25'0 0.2
2017-Oct-19 15:29N 48°08' W 123°25'0 0.1
2017-Oct-19 14:53N 48°08' W 123°25'0 0.1
2017-Oct-19 14:30N 48°08' W 123°25'0 0.0
2017-Oct-19 13:56N 48°08' W 123°25'0 0.0
2017-Oct-19 13:30N 48°08' W 123°25'0 0.0
2017-Oct-19 12:57N 48°08' W 123°25'0 0.1
2017-Oct-19 12:29N 48°08' W 123°25'0 0.0
2017-Oct-19 12:00N 48°08' W 123°25'0 0.1
2017-Oct-19 11:27N 48°08' W 123°25'0 0.2
2017-Oct-19 10:59N 48°08' W 123°25'0 0.4
2017-Oct-19 10:30N 48°08' W 123°25'2 3.9
2017-Oct-19 10:00N 48°08' W 123°22'4 7.7
2017-Oct-19 09:30N 48°10' W 123°17'612.5
2017-Oct-19 09:00N 48°15' W 123°10'713.0
2017-Oct-19 08:30N 48°19' W 123°02'612.8
2017-Oct-19 08:00N 48°22' W 122°54'713.1
2017-Oct-19 07:30N 48°26' W 122°46'510.6
2017-Oct-19 07:00N 48°31' W 122°44'611.3
2017-Oct-19 06:30N 48°37' W 122°45'611.3
2017-Oct-19 06:00N 48°42' W 122°44'611.8
2017-Oct-19 05:30N 48°48' W 122°45'1 0.1
2017-Oct-18 14:00N 48°49' W 122°43'1 2.5
2017-Oct-18 13:30N 48°48' W 122°44'4 7.7
2017-Oct-18 13:00N 48°45' W 122°45'611.9
2017-Oct-18 12:30N 48°39' W 122°43'510.9
2017-Oct-18 12:00N 48°33' W 122°45'610.8
2017-Oct-18 11:30N 48°28' W 122°45'611.5
2017-Oct-18 11:00N 48°23' W 122°50'713.3
2017-Oct-18 10:30N 48°20' W 122°58'714.1
2017-Oct-18 10:00N 48°16' W 123°07'815.9
2017-Oct-18 09:30N 48°12' W 123°18'611.9
2017-Oct-18 09:00N 48°10' W 123°26'510.1
2017-Oct-18 08:30N 48°13' W 123°32'712.5
2017-Oct-18 07:59N 48°13' W 123°42'5 9.8
2017-Oct-18 07:29N 48°13' W 123°50'4 9.2
2017-Oct-18 07:00N 48°14' W 123°56'712.9
2017-Oct-18 06:30N 48°17' W 124°05'714.7
2017-Oct-18 06:00N 48°20' W 124°15'714.6
2017-Oct-18 05:30N 48°23' W 124°25'714.3
2017-Oct-18 05:00N 48°26' W 124°34'713.8
2017-Oct-18 04:31N 48°28' W 124°44'714.1
2017-Oct-18 04:00N 48°28' W 124°55'714.3
2017-Oct-18 03:30N 48°28' W 125°06'815.1
2017-Oct-18 03:00N 48°28' W 125°17'815.3
2017-Oct-18 02:30N 48°28' W 125°29'714.7
2017-Oct-18 02:01N 48°28' W 125°40'714.7
2017-Oct-18 01:30N 48°29' W 125°51'814.8
2017-Oct-18 00:59N 48°29' W 126°02'19713.2
2017-Oct-17 10:00N 50°00' W 130°30'18615.5 1015.910.8 11.0 4.312.0
2017-Oct-16 22:00N 51°36' W 134°42'20015.4 1012.0 5.4 10.0 7.912.0
2017-Oct-16 09:00N 53°30' W 139°12'30814.0 1011.410.8 9.0 9.012.0
2017-Oct-15 11:00N 57°54' W 143°54'   1000.610.8 7.0 4.710.0
2017-Oct-12 11:00N 56°42' W 142°42'   270 / 251029.110.8 11.0 9.011.0

Dump ship's entire track history